createdAt,value
2022-10-10T00:00:31.327Z,100597.09
2022-10-10T00:05:35.988Z,100587.16
2022-10-10T00:10:39.004Z,100587.16
2022-10-10T00:15:45.657Z,100594.31
2022-10-10T00:20:53.352Z,100590.31
2022-10-10T00:25:55.992Z,100584.25
2022-10-10T00:30:58.766Z,100573.59
2022-10-10T00:36:02.765Z,100573.56
2022-10-10T00:41:05.868Z,100572.13
2022-10-10T00:46:08.804Z,100568.78
2022-10-10T00:51:14.770Z,100564.78
2022-10-10T00:56:19.283Z,100566.47
2022-10-10T01:01:22.117Z,100549.94
2022-10-10T01:06:26.201Z,100553.50
2022-10-10T01:11:46.277Z,100548.53
2022-10-10T01:16:55.435Z,100539.69
2022-10-10T01:22:07.622Z,100536.50
2022-10-10T01:27:31.447Z,100527.84
2022-10-10T01:32:40.921Z,100524.66
2022-10-10T01:37:50.112Z,100520.28
2022-10-10T01:42:56.083Z,100510.63
2022-10-10T01:48:02.216Z,100504.56
2022-10-10T01:53:15.509Z,100506.22
2022-10-10T01:58:28.482Z,100501.25
2022-10-10T02:03:37.771Z,100500.03
2022-10-10T02:08:43.117Z,100476.59
2022-10-10T02:13:48.723Z,100478.09
2022-10-10T02:18:53.301Z,100479.63
2022-10-10T02:23:57.649Z,100463.22
2022-10-10T02:29:03.553Z,100464.72
2022-10-10T02:34:11.321Z,100455.38
2022-10-10T02:39:14.321Z,100460.16
2022-10-10T02:44:17.059Z,100453.69
2022-10-10T02:49:25.635Z,100450.38
2022-10-10T02:54:28.539Z,100436.59
2022-10-10T02:59:31.207Z,100427.91
2022-10-10T03:04:35.926Z,100417.84
2022-10-10T03:09:38.538Z,100421.25
2022-10-10T03:14:41.371Z,100423.88
2022-10-10T03:19:45.425Z,100418.22
2022-10-10T03:24:48.044Z,100414.78
2022-10-10T03:29:50.682Z,100403.47
2022-10-10T03:34:54.691Z,100398.34
2022-10-10T03:39:57.291Z,100388.94
2022-10-10T03:44:59.913Z,100388.44
2022-10-10T03:50:04.113Z,100385.72
2022-10-10T03:55:07.505Z,100382.13
2022-10-10T04:00:11.353Z,100381.56
2022-10-10T04:05:15.363Z,100368.16
2022-10-10T04:10:18.388Z,100368.59
2022-10-10T04:15:21.079Z,100365.28
2022-10-10T04:20:25.364Z,100362.94
2022-10-10T04:25:29.350Z,100371.91
2022-10-10T04:30:34.033Z,100361.97
2022-10-10T04:35:38.133Z,100353.72
2022-10-10T04:40:40.759Z,100344.22
2022-10-10T04:45:43.402Z,100340.59
2022-10-10T04:50:52.482Z,100339.91
2022-10-10T04:55:55.228Z,100333.69
2022-10-10T05:00:57.879Z,100340.00
2022-10-10T05:06:01.851Z,100337.78
2022-10-10T05:11:04.486Z,100344.28
2022-10-10T05:16:07.550Z,100339.72
2022-10-10T05:21:11.969Z,100332.44
2022-10-10T05:26:15.004Z,100344.28
2022-10-10T05:31:17.698Z,100344.81
2022-10-10T05:36:21.753Z,100345.59
2022-10-10T05:41:24.435Z,100341.22
2022-10-10T05:46:27.494Z,100336.50
2022-10-10T05:51:31.511Z,100339.56
2022-10-10T05:56:34.119Z,100337.09
2022-10-10T06:01:37.402Z,100336.69
2022-10-10T06:06:42.186Z,100332.53
2022-10-10T06:11:44.860Z,100334.78
2022-10-10T06:16:47.582Z,100334.66
2022-10-10T06:21:51.772Z,100344.22
2022-10-10T06:26:54.368Z,100348.09
2022-10-10T06:31:56.995Z,100346.00
2022-10-10T06:37:01.042Z,100352.91
2022-10-10T06:42:03.665Z,100355.25
2022-10-10T06:47:06.532Z,100355.69
2022-10-10T06:52:10.627Z,100352.78
2022-10-10T06:57:13.250Z,100353.19
2022-10-10T07:02:15.879Z,100347.97
2022-10-10T07:07:19.871Z,100347.81
2022-10-10T07:12:22.546Z,100356.50
2022-10-10T07:17:25.372Z,100358.53
2022-10-10T07:22:29.379Z,100355.59
2022-10-10T07:27:31.989Z,100349.50
2022-10-10T07:32:34.635Z,100357.63
2022-10-10T07:37:38.899Z,100360.66
2022-10-10T07:42:41.721Z,100359.94
2022-10-10T07:47:44.341Z,100362.00
2022-10-10T07:52:48.481Z,100361.41
2022-10-10T07:57:53.432Z,100367.72
2022-10-10T08:02:56.353Z,100374.03
2022-10-10T08:08:00.337Z,100371.00
2022-10-10T08:13:03.118Z,100360.69
2022-10-10T08:18:06.052Z,100357.16
2022-10-10T08:23:10.299Z,100359.66
2022-10-10T08:28:12.945Z,100361.19
2022-10-10T08:33:15.807Z,100353.97
2022-10-10T08:38:20.143Z,100350.78
2022-10-10T08:43:28.142Z,100353.38
2022-10-10T08:48:31.883Z,100346.97
2022-10-10T08:53:39.676Z,100340.88
2022-10-10T08:58:46.501Z,100322.22
2022-10-10T09:03:50.385Z,100325.41
2022-10-10T09:09:01.292Z,100318.41
2022-10-10T09:14:12.938Z,100307.75
2022-10-10T09:19:24.636Z,100302.34
2022-10-10T09:24:33.174Z,100304.66
2022-10-10T09:29:40.907Z,100308.44
2022-10-10T09:34:47.137Z,100302.81
2022-10-10T09:39:53.863Z,100311.38
2022-10-10T09:44:56.527Z,100315.97
2022-10-10T09:49:59.901Z,100315.59
2022-10-10T09:55:07.789Z,100311.13
2022-10-10T10:00:26.842Z,100298.88
2022-10-10T10:05:30.644Z,100305.69
2022-10-10T10:10:37.208Z,100299.34
2022-10-10T10:15:39.904Z,100295.63
2022-10-10T10:20:44.301Z,100306.81
2022-10-10T10:25:58.007Z,100303.75
2022-10-10T10:31:00.825Z,100314.41
2022-10-10T10:36:12.241Z,100310.03
2022-10-10T10:41:25.227Z,100311.63
2022-10-10T10:46:35.074Z,100311.66
2022-10-10T10:51:47.523Z,100299.31
2022-10-10T10:56:58.972Z,100301.56
2022-10-10T11:02:54.159Z,100290.22
2022-10-10T11:07:57.316Z,100280.44
2022-10-10T11:13:08.108Z,100277.28
2022-10-10T11:18:13.721Z,100266.72
2022-10-10T11:23:19.463Z,100248.78
2022-10-10T11:28:26.474Z,100250.63
2022-10-10T11:33:32.050Z,100228.78
2022-10-10T11:38:39.185Z,100228.19
2022-10-10T11:43:47.759Z,100250.97
2022-10-10T11:48:56.351Z,100245.94
2022-10-10T11:54:02.603Z,100238.09
2022-10-10T11:59:13.211Z,100243.28
2022-10-10T12:04:15.850Z,100227.41
2022-10-10T12:09:22.924Z,100219.53
2022-10-10T12:14:29.654Z,100221.66
2022-10-10T12:19:32.538Z,100225.50
2022-10-10T12:24:40.956Z,100203.03
2022-10-10T12:29:51.358Z,100203.13
2022-10-10T12:35:00.090Z,100196.47
2022-10-10T12:40:21.608Z,100201.31
2022-10-10T12:45:59.745Z,100192.28
2022-10-10T12:51:03.320Z,100178.81
2022-10-10T12:56:07.221Z,100175.50
2022-10-10T13:01:27.225Z,100174.09
2022-10-10T13:06:35.686Z,100169.69
2022-10-10T13:11:56.081Z,100180.22
2022-10-10T13:17:00.075Z,100172.69
2022-10-10T13:22:02.755Z,100169.69
2022-10-10T13:27:05.401Z,100174.03
2022-10-10T13:32:12.690Z,100160.94
2022-10-10T13:37:18.222Z,100165.31
2022-10-10T13:42:33.010Z,100164.63
2022-10-10T13:47:56.890Z,100162.44
2022-10-10T13:53:25.627Z,100169.06
2022-10-10T13:58:29.130Z,100162.47
2022-10-10T14:03:34.271Z,100163.72
2022-10-10T14:08:36.904Z,100158.91
2022-10-10T14:13:39.934Z,100160.56
2022-10-10T14:18:44.919Z,100156.91
2022-10-10T14:23:47.555Z,100159.78
2022-10-10T14:28:50.527Z,100160.78
2022-10-10T14:33:54.863Z,100160.63
2022-10-10T14:38:57.473Z,100160.19
2022-10-10T14:44:00.092Z,100155.28
2022-10-10T14:49:04.347Z,100148.72
2022-10-10T14:54:11.789Z,100145.44
2022-10-10T14:59:19.096Z,100139.16
2022-10-10T15:04:43.144Z,100141.22
2022-10-10T15:10:17.601Z,100147.47
2022-10-10T15:15:11.249Z,100142.50
2022-10-10T15:20:15.519Z,100148.53
2022-10-10T15:25:18.556Z,100138.94
2022-10-10T15:30:21.330Z,100157.88
2022-10-10T15:35:26.369Z,100149.00
2022-10-10T15:40:29.306Z,100158.06
2022-10-10T15:45:54.333Z,100156.47
2022-10-10T15:50:56.183Z,100160.53
2022-10-10T15:55:58.853Z,100170.00
2022-10-10T16:01:02.248Z,100169.38
2022-10-10T16:06:07.294Z,100156.09
2022-10-10T16:11:11.604Z,100167.34
2022-10-10T16:16:14.307Z,100176.41
2022-10-10T16:21:20.062Z,100177.88
2022-10-10T16:26:26.314Z,100170.59
2022-10-10T16:31:29.682Z,100171.47
2022-10-10T16:36:35.514Z,100179.31
2022-10-10T16:41:53.429Z,100190.84
2022-10-10T16:46:56.069Z,100196.66
2022-10-10T16:52:00.306Z,100197.63
2022-10-10T16:57:03.018Z,100187.97
2022-10-10T17:02:05.698Z,100204.22
2022-10-10T17:07:38.675Z,100214.75
2022-10-10T17:12:41.356Z,100221.16
2022-10-10T17:17:44.024Z,100224.72
2022-10-10T17:22:48.065Z,100224.09
2022-10-10T17:27:50.847Z,100227.78
2022-10-10T17:32:53.644Z,100232.22
2022-10-10T17:37:57.583Z,100257.91
2022-10-10T17:43:04.428Z,100250.78
2022-10-10T17:48:09.246Z,100256.63
2022-10-10T17:53:13.176Z,100255.34
2022-10-10T17:58:16.015Z,100260.00
2022-10-10T18:03:19.852Z,100264.47
2022-10-10T18:08:23.889Z,100259.56
2022-10-10T18:13:26.730Z,100255.44
2022-10-10T18:18:29.423Z,100275.34
2022-10-10T18:23:33.529Z,100284.50
2022-10-10T18:28:38.933Z,100289.63
2022-10-10T18:33:41.937Z,100290.03
2022-10-10T18:38:46.563Z,100293.28
2022-10-10T18:43:49.988Z,100293.03
2022-10-10T18:48:54.272Z,100289.63
2022-10-10T18:54:02.035Z,100295.63
2022-10-10T18:59:06.705Z,100298.84
2022-10-10T19:04:10.967Z,100305.97
2022-10-10T19:09:17.154Z,100313.25
2022-10-10T19:14:20.342Z,100310.78
2022-10-10T19:19:23.783Z,100321.25
2022-10-10T19:24:27.795Z,100324.88
2022-10-10T19:29:30.751Z,100334.19
2022-10-10T19:34:33.426Z,100330.16
2022-10-10T19:39:37.843Z,100335.16
2022-10-10T19:44:40.470Z,100342.13
2022-10-10T19:49:43.204Z,100358.38
2022-10-10T19:54:47.383Z,100368.19
2022-10-10T19:59:50.044Z,100369.06
2022-10-10T20:04:52.713Z,100375.38
2022-10-10T20:09:56.717Z,100380.88
2022-10-10T20:15:00.058Z,100380.75
2022-10-10T20:20:03.102Z,100394.66
2022-10-10T20:25:08.222Z,100403.94
2022-10-10T20:30:11.880Z,100406.59
2022-10-10T20:35:18.514Z,100412.06
2022-10-10T20:40:22.557Z,100408.91
2022-10-10T20:45:25.246Z,100413.88
2022-10-10T20:50:27.902Z,100418.69
2022-10-10T20:55:32.014Z,100438.81
2022-10-10T21:00:34.715Z,100442.44
2022-10-10T21:05:37.512Z,100439.19
2022-10-10T21:10:42.964Z,100444.59
2022-10-10T21:15:45.597Z,100441.66
2022-10-10T21:20:58.898Z,100449.59
2022-10-10T21:26:06.876Z,100453.53
2022-10-10T21:31:14.656Z,100467.56
2022-10-10T21:36:18.596Z,100469.06
2022-10-10T21:41:23.446Z,100476.50
2022-10-10T21:46:34.787Z,100483.09
2022-10-10T21:51:40.474Z,100491.31
2022-10-10T21:56:44.567Z,100500.75
2022-10-10T22:01:47.169Z,100508.66
2022-10-10T22:06:49.817Z,100514.59
2022-10-10T22:11:53.912Z,100520.72
2022-10-10T22:16:56.503Z,100531.59
2022-10-10T22:21:59.135Z,100537.22
2022-10-10T22:27:03.168Z,100552.22
2022-10-10T22:32:06.040Z,100548.75
2022-10-10T22:37:08.670Z,100551.75
2022-10-10T22:42:12.623Z,100559.97
2022-10-10T22:47:15.241Z,100571.53
2022-10-10T22:52:17.893Z,100575.34
2022-10-10T22:57:21.841Z,100575.50
2022-10-10T23:02:24.468Z,100584.09
2022-10-10T23:07:27.418Z,100591.38
2022-10-10T23:12:31.402Z,100603.06
2022-10-10T23:17:34.756Z,100617.13
2022-10-10T23:22:37.546Z,100626.03
2022-10-10T23:27:41.551Z,100631.44
2022-10-10T23:32:44.169Z,100638.38
2022-10-10T23:37:46.980Z,100643.34
2022-10-10T23:42:51.110Z,100636.75
2022-10-10T23:47:53.763Z,100645.16
2022-10-10T23:52:56.419Z,100660.03
2022-10-10T23:58:02.798Z,100660.34
